Time;durP1;ratioP1;P1;durP2;ratioP2;P2;SDS_P1;SDS_P2;PMS_P1;PMS_P2;Temp;Humidity;BMP_temperature;BMP_pressure;BME280_temperature;BME280_humidity;BME280_pressure;Samples;Min_cycle;Max_cycle;Signal;HPM_P1;HPM_P2
2024/02/29 00:01:54;;;;;;;22.63;12.60;;;3.90;30.40;;;;;;5073197;28;20201;-72
2024/02/29 00:04:20;;;;;;;23.77;14.20;;;3.90;99.90;;;;;;5073557;28;20162;-70
2024/02/29 00:06:45;;;;;;;21.23;13.27;;;3.90;8.80;;;;;;5067935;28;20515;-71
2024/02/29 00:09:11;;;;;;;20.40;13.33;;;3.90;99.90;;;;;;5035719;28;20177;-71
2024/02/29 00:11:37;;;;;;;19.63;12.33;;;3.80;99.90;;;;;;5053295;28;20175;-71
2024/02/29 00:14:02;;;;;;;19.70;13.20;;;3.80;99.90;;;;;;5052993;28;20326;-70
2024/02/29 00:16:28;;;;;;;23.33;13.07;;;3.80;1.00;;;;;;5053256;28;20175;-70
2024/02/29 00:18:53;;;;;;;21.27;13.60;;;3.70;99.90;;;;;;5052848;28;20182;-70
2024/02/29 00:21:19;;;;;;;20.77;13.30;;;3.80;1.00;;;;;;5053249;28;20185;-70
2024/02/29 00:23:45;;;;;;;22.37;14.10;;;3.70;1.00;;;;;;5052558;28;20741;-70
2024/02/29 00:26:14;;;;;;;23.33;14.37;;;3.70;1.00;;;;;;5053095;28;20641;-70
2024/02/29 00:28:40;;;;;;;19.47;12.50;;;3.70;1.00;;;;;;5052825;28;20687;-70
2024/02/29 00:31:05;;;;;;;19.00;13.70;;;3.70;1.00;;;;;;5052858;28;20270;-70
2024/02/29 00:33:31;;;;;;;23.07;13.30;;;3.60;1.00;;;;;;5056844;28;20182;-70
2024/02/29 00:35:57;;;;;;;24.07;13.93;;;3.60;1.00;;;;;;5072657;28;20511;-70
2024/02/29 00:38:22;;;;;;;20.73;13.07;;;3.60;1.00;;;;;;5073142;28;20181;-70
2024/02/29 00:40:48;;;;;;;18.83;12.63;;;3.50;1.00;;;;;;5072846;28;20281;-70
2024/02/29 00:43:13;;;;;;;22.37;13.50;;;3.50;1.00;;;;;;5072648;28;20666;-70
2024/02/29 00:45:39;;;;;;;20.90;12.70;;;3.40;1.00;;;;;;5054313;28;20254;-71
2024/02/29 00:48:05;;;;;;;22.50;13.77;;;3.40;1.00;;;;;;5056798;28;20190;-71
2024/02/29 00:50:32;;;;;;;20.93;13.03;;;3.30;1.00;;;;;;5052664;28;20590;-70
2024/02/29 00:52:58;;;;;;;19.23;14.10;;;3.30;1.00;;;;;;5052540;28;20178;-71
2024/02/29 00:55:24;;;;;;;20.87;12.57;;;3.40;1.00;;;;;;5052545;28;20171;-71
2024/02/29 00:57:51;;;;;;;19.93;13.60;;;3.40;1.00;;;;;;5052300;28;20179;-71
2024/02/29 01:00:17;;;;;;;20.53;12.97;;;3.40;1.00;;;;;;5052158;28;20198;-71
2024/02/29 01:02:44;;;;;;;16.60;12.50;;;3.50;1.00;;;;;;5052427;28;20206;-71
2024/02/29 01:05:10;;;;;;;17.93;12.00;;;3.40;1.00;;;;;;5052125;28;20506;-71
2024/02/29 01:07:36;;;;;;;19.93;12.13;;;3.40;99.90;;;;;;5052353;28;20208;-70
2024/02/29 01:10:05;;;;;;;17.37;12.57;;;3.50;99.90;;;;;;5051829;28;20195;-70
2024/02/29 01:12:31;;;;;;;18.73;12.80;;;3.40;99.90;;;;;;5051458;28;20569;-70
2024/02/29 01:14:57;;;;;;;22.00;12.00;;;3.50;1.00;;;;;;5057226;28;20181;-70
2024/02/29 01:17:24;;;;;;;18.40;12.13;;;3.40;99.90;;;;;;5072561;28;20178;-71
2024/02/29 01:19:50;;;;;;;19.60;13.67;;;3.50;1.00;;;;;;5072730;28;20194;-71
2024/02/29 01:22:16;;;;;;;17.87;12.53;;;3.40;1.00;;;;;;5072538;28;20194;-71
2024/02/29 01:24:41;;;;;;;25.40;13.87;;;3.50;99.90;;;;;;5071618;28;20182;-71
2024/02/29 01:27:07;;;;;;;18.60;12.03;;;3.50;1.00;;;;;;5055488;28;20269;-71
2024/02/29 01:29:32;;;;;;;19.23;12.03;;;3.50;99.90;;;;;;5051649;28;20187;-71
2024/02/29 01:31:58;;;;;;;17.80;12.20;;;3.50;1.00;;;;;;5051551;28;20205;-71
2024/02/29 01:34:24;;;;;;;20.50;12.07;;;3.50;1.00;;;;;;5051803;28;20166;-71
2024/02/29 01:36:49;;;;;;;18.53;12.10;;;3.50;1.00;;;;;;5051765;28;20171;-71
2024/02/29 01:39:15;;;;;;;24.00;13.30;;;3.50;99.90;;;;;;5051802;28;20687;-71
2024/02/29 01:41:41;;;;;;;23.23;12.97;;;3.50;99.90;;;;;;5052767;28;20191;-70
2024/02/29 01:44:07;;;;;;;18.13;11.77;;;3.50;99.90;;;;;;5051167;28;20171;-71
2024/02/29 01:46:33;;;;;;;18.20;12.37;;;3.50;99.90;;;;;;5051749;28;20171;-71
2024/02/29 01:49:01;;;;;;;24.97;12.23;;;3.50;99.90;;;;;;5051586;28;20174;-71
2024/02/29 01:51:27;;;;;;;19.30;12.60;;;3.50;54.40;;;;;;5051625;28;20178;-71
2024/02/29 01:53:53;;;;;;;18.03;11.70;;;3.50;1.00;;;;;;5051178;28;20217;-71
2024/02/29 01:56:20;;;;;;;19.20;12.10;;;3.50;1.00;;;;;;5064703;28;20170;-71
2024/02/29 01:58:46;;;;;;;18.53;11.83;;;3.50;1.00;;;;;;5071321;28;20201;-71
2024/02/29 02:01:12;;;;;;;17.30;12.13;;;3.50;1.00;;;;;;5071586;28;20209;-73
2024/02/29 02:03:38;;;;;;;17.53;11.80;;;3.50;1.00;;;;;;5056437;28;20717;-71
2024/02/29 02:06:04;;;;;;;18.57;13.03;;;3.50;1.00;;;;;;5051283;28;20522;-71
2024/02/29 02:08:32;;;;;;;20.17;12.63;;;3.50;1.00;;;;;;5055187;28;20212;-71
2024/02/29 02:10:57;;;;;;;19.63;12.67;;;3.40;1.00;;;;;;5070876;28;20225;-71
2024/02/29 02:13:23;;;;;;;18.23;12.20;;;3.40;1.00;;;;;;5071376;28;20178;-71
2024/02/29 02:15:49;;;;;;;18.67;12.23;;;3.40;1.00;;;;;;5071127;28;20170;-71
2024/02/29 02:18:14;;;;;;;21.73;12.50;;;3.40;1.00;;;;;;5071329;28;20170;-71
2024/02/29 02:20:40;;;;;;;20.27;12.37;;;3.40;99.90;;;;;;5071346;28;20220;-71
2024/02/29 02:23:06;;;;;;;19.23;12.60;;;3.30;1.00;;;;;;5068011;28;20202;-71
2024/02/29 02:25:31;;;;;;;22.37;13.77;;;3.30;1.00;;;;;;5052136;28;20179;-71
2024/02/29 02:27:57;;;;;;;21.77;13.83;;;3.30;1.00;;;;;;5051061;28;20539;-71
2024/02/29 02:30:23;;;;;;;22.93;13.00;;;3.30;1.00;;;;;;5051018;28;20189;-72
2024/02/29 02:32:48;;;;;;;19.00;13.90;;;3.30;1.00;;;;;;5050911;28;20642;-71
2024/02/29 02:35:14;;;;;;;17.17;12.97;;;3.30;2.00;;;;;;5050846;28;20170;-70
2024/02/29 02:37:40;;;;;;;28.10;13.63;;;3.30;1.00;;;;;;5051120;28;20554;-70
2024/02/29 02:40:06;;;;;;;20.83;12.50;;;3.30;1.00;;;;;;5050744;28;20682;-70
2024/02/29 02:42:32;;;;;;;19.73;12.57;;;3.30;1.00;;;;;;5051361;28;20206;-71
2024/02/29 02:44:58;;;;;;;18.10;11.80;;;3.30;1.00;;;;;;5050703;28;20177;-70
2024/02/29 02:47:24;;;;;;;20.73;12.97;;;3.30;1.00;;;;;;5056324;28;20170;-71
2024/02/29 02:49:49;;;;;;;19.40;12.03;;;3.40;1.00;;;;;;5070540;28;20228;-71
2024/02/29 02:52:15;;;;;;;18.37;12.13;;;3.40;1.00;;;;;;5070885;28;20166;-71
2024/02/29 02:54:41;;;;;;;25.17;13.63;;;3.40;1.00;;;;;;5070748;28;20181;-71
2024/02/29 02:57:06;;;;;;;21.47;13.10;;;3.40;1.00;;;;;;5070728;28;20174;-71
2024/02/29 02:59:32;;;;;;;18.90;12.83;;;3.30;1.00;;;;;;5070666;28;20190;-71
2024/02/29 03:01:57;;;;;;;22.93;13.67;;;3.30;1.00;;;;;;5068657;28;20202;-71
2024/02/29 03:04:23;;;;;;;23.60;13.47;;;3.30;1.00;;;;;;5067804;28;20643;-71
2024/02/29 03:06:49;;;;;;;24.77;12.90;;;3.30;1.00;;;;;;5050727;28;20588;-71
2024/02/29 03:09:14;;;;;;;19.47;12.23;;;3.30;99.90;;;;;;5050586;28;20535;-71
2024/02/29 03:11:40;;;;;;;22.43;13.53;;;3.20;1.00;;;;;;5050523;28;20182;-71
2024/02/29 03:14:05;;;;;;;21.00;12.77;;;3.20;1.00;;;;;;5050265;28;20198;-71
2024/02/29 03:16:35;;;;;;;22.03;13.47;;;3.20;1.00;;;;;;5063447;28;20178;-71
2024/02/29 03:19:00;;;;;;;22.97;13.40;;;3.10;1.00;;;;;;5070534;28;20174;-71
2024/02/29 03:21:28;;;;;;;20.50;13.80;;;3.10;1.00;;;;;;5070843;28;20544;-71
2024/02/29 03:23:53;;;;;;;22.80;13.57;;;3.10;1.00;;;;;;5070776;28;20194;-71
2024/02/29 03:26:19;;;;;;;25.87;14.90;;;3.00;1.00;;;;;;5070640;28;20170;-70
2024/02/29 03:28:45;;;;;;;25.43;14.83;;;3.00;1.00;;;;;;5070470;28;20177;-70
2024/02/29 03:31:14;;;;;;;26.73;14.30;;;3.00;1.00;;;;;;5058556;28;20206;-70
2024/02/29 03:33:40;;;;;;;20.83;14.23;;;3.10;1.00;;;;;;5050722;28;20640;-70
2024/02/29 03:36:06;;;;;;;21.07;13.30;;;3.00;1.00;;;;;;5052657;28;20250;-70
2024/02/29 03:38:32;;;;;;;25.00;13.53;;;3.00;1.00;;;;;;5054345;28;20587;-70
2024/02/29 03:43:25;;;;;;;23.03;13.63;;;3.00;1.00;;;;;;5072474;28;20590;-71
2024/02/29 03:45:51;;;;;;;23.33;15.27;;;3.00;36.80;;;;;;5085411;28;20174;-70
2024/02/29 03:48:17;;;;;;;20.83;13.70;;;3.00;70.00;;;;;;5093121;28;20169;-69
2024/02/29 03:50:42;;;;;;;26.83;14.80;;;3.00;1.00;;;;;;5094252;28;20229;-69
2024/02/29 03:53:08;;;;;;;22.63;14.07;;;3.00;99.90;;;;;;5094355;28;20197;-69
2024/02/29 03:55:34;;;;;;;22.53;15.27;;;3.00;99.90;;;;;;5087529;28;20174;-70
2024/02/29 03:58:00;;;;;;;23.40;15.30;;;3.00;1.00;;;;;;5074579;28;20178;-69
2024/02/29 04:00:25;;;;;;;24.93;14.83;;;3.10;99.90;;;;;;5090990;28;20201;-69
2024/02/29 04:02:51;;;;;;;21.63;13.03;;;3.20;99.90;;;;;;5073773;28;20572;-69
2024/02/29 04:05:17;;;;;;;21.97;14.33;;;3.20;23.80;;;;;;5073931;28;20174;-69
2024/02/29 04:07:42;;;;;;;25.63;15.47;;;3.30;1.00;;;;;;5073720;28;20167;-69
2024/02/29 04:10:08;;;;;;;28.67;16.03;;;3.30;1.00;;;;;;5073610;28;20251;-69
2024/02/29 04:12:34;;;;;;;26.67;15.90;;;3.30;1.00;;;;;;5073661;28;20197;-69
2024/02/29 04:15:03;;;;;;;28.33;15.23;;;3.40;1.00;;;;;;5074291;28;20173;-70
2024/02/29 04:17:32;;;;;;;25.80;14.97;;;3.40;1.00;;;;;;5093877;28;20718;-69
2024/02/29 04:19:57;;;;;;;27.70;15.50;;;3.50;99.90;;;;;;5093614;28;20189;-69
2024/02/29 04:22:23;;;;;;;27.03;15.43;;;3.40;99.90;;;;;;5092371;28;20211;-70
2024/02/29 04:24:50;;;;;;;24.27;15.10;;;3.40;99.90;;;;;;5093513;28;20176;-71
2024/02/29 04:27:16;;;;;;;23.60;14.17;;;3.50;99.90;;;;;;5094003;28;20197;-69
2024/02/29 04:29:45;;;;;;;19.03;13.00;;;3.50;99.90;;;;;;5092390;28;20175;-69
2024/02/29 04:32:11;;;;;;;25.23;14.70;;;3.50;99.90;;;;;;5083723;28;20189;-69
2024/02/29 04:34:37;;;;;;;23.80;13.83;;;3.50;99.90;;;;;;5093741;28;20653;-69
2024/02/29 04:37:03;;;;;;;22.43;14.47;;;3.50;99.90;;;;;;5093306;28;20192;-69
2024/02/29 04:39:28;;;;;;;21.10;14.93;;;3.50;99.90;;;;;;5093339;28;20223;-69
2024/02/29 04:41:54;;;;;;;20.97;14.20;;;3.50;99.90;;;;;;5100400;28;20212;-68
2024/02/29 04:44:19;;;;;;;23.10;14.43;;;3.50;99.90;;;;;;5113391;28;20176;-70
2024/02/29 04:46:45;;;;;;;23.40;14.10;;;3.40;99.90;;;;;;5103865;28;20170;-69
2024/02/29 04:49:11;;;;;;;21.27;14.97;;;3.50;91.40;;;;;;5093583;28;20180;-70
2024/02/29 04:51:36;;;;;;;21.60;14.13;;;3.50;97.10;;;;;;5093598;28;20650;-68
2024/02/29 04:54:02;;;;;;;19.20;13.73;;;3.50;70.80;;;;;;5092714;28;20642;-70
2024/02/29 04:56:28;;;;;;;23.17;14.57;;;3.50;66.50;;;;;;5092909;28;20170;-69
2024/02/29 04:58:53;;;;;;;23.07;14.07;;;3.50;33.70;;;;;;5093729;28;20670;-71
2024/02/29 05:01:19;;;;;;;20.63;12.63;;;3.50;39.30;;;;;;5092835;28;20216;-69
2024/02/29 05:03:45;;;;;;;22.00;13.47;;;3.50;10.50;;;;;;5092418;28;20205;-68
2024/02/29 05:06:15;;;;;;;19.07;13.07;;;3.50;1.00;;;;;;5104461;28;20188;-68
2024/02/29 05:08:41;;;;;;;23.27;12.43;;;3.50;1.00;;;;;;5114047;28;20581;-69
2024/02/29 05:11:10;;;;;;;19.50;13.20;;;3.50;1.00;;;;;;5113451;28;20274;-70
2024/02/29 05:13:36;;;;;;;20.67;13.40;;;3.50;1.00;;;;;;5113110;28;20200;-70
2024/02/29 05:16:05;;;;;;;23.90;13.13;;;3.50;1.00;;;;;;5100880;28;20270;-69
2024/02/29 05:18:31;;;;;;;20.97;12.83;;;3.50;10.60;;;;;;5092663;28;20680;-69
2024/02/29 05:20:56;;;;;;;20.93;12.53;;;3.50;16.10;;;;;;5092330;28;20193;-69
2024/02/29 05:23:22;;;;;;;17.63;13.23;;;3.50;12.10;;;;;;5092416;28;20201;-70
2024/02/29 05:25:47;;;;;;;18.43;12.90;;;3.40;24.00;;;;;;5091835;28;20610;-70
2024/02/29 05:28:13;;;;;;;18.03;13.17;;;3.40;39.10;;;;;;5111274;28;20222;-70
2024/02/29 05:30:39;;;;;;;21.93;13.50;;;3.40;56.80;;;;;;5112713;28;20563;-70
2024/02/29 05:33:04;;;;;;;25.63;13.97;;;3.40;88.30;;;;;;5112764;28;20525;-70
2024/02/29 05:35:32;;;;;;;22.90;13.90;;;3.40;76.40;;;;;;5112784;28;20168;-70
2024/02/29 05:37:58;;;;;;;24.90;13.90;;;3.40;61.10;;;;;;5112583;27;20173;-70
2024/02/29 05:40:24;;;;;;;22.80;13.27;;;3.40;84.80;;;;;;5112372;28;20690;-70
2024/02/29 05:42:50;;;;;;;20.90;12.77;;;3.40;68.90;;;;;;5092125;28;20289;-70
2024/02/29 05:45:15;;;;;;;22.00;14.17;;;3.40;56.50;;;;;;5092169;28;20166;-69
2024/02/29 05:47:41;;;;;;;28.53;13.93;;;3.40;37.70;;;;;;5092177;28;20162;-70
2024/02/29 05:50:08;;;;;;;21.27;14.03;;;3.40;27.30;;;;;;5098931;28;20197;-70
2024/02/29 05:52:36;;;;;;;23.30;14.17;;;3.40;24.10;;;;;;5112494;28;20221;-70
2024/02/29 05:55:02;;;;;;;20.63;13.67;;;3.40;21.40;;;;;;5099427;28;20649;-70
2024/02/29 05:57:31;;;;;;;22.60;12.87;;;3.40;24.60;;;;;;5092083;28;20238;-69
2024/02/29 05:59:57;;;;;;;19.67;13.40;;;3.40;18.10;;;;;;5091664;28;20717;-69
2024/02/29 06:02:22;;;;;;;26.57;14.17;;;3.40;22.40;;;;;;5091994;28;20492;-70
2024/02/29 06:04:48;;;;;;;18.23;13.63;;;3.40;49.40;;;;;;5091654;28;20181;-70
2024/02/29 06:07:14;;;;;;;19.27;13.07;;;3.40;47.90;;;;;;5092410;28;20173;-69
2024/02/29 06:09:41;;;;;;;19.73;14.30;;;3.30;42.50;;;;;;5094065;28;20647;-69
2024/02/29 06:12:07;;;;;;;25.37;13.43;;;3.30;69.20;;;;;;5091758;28;20181;-69
2024/02/29 06:14:33;;;;;;;20.50;12.83;;;3.30;81.30;;;;;;5091815;28;20638;-69
2024/02/29 06:16:59;;;;;;;20.43;13.43;;;3.30;85.40;;;;;;5091605;28;20169;-69
2024/02/29 06:19:25;;;;;;;20.43;13.93;;;3.30;61.60;;;;;;5091675;28;20173;-70
2024/02/29 06:21:51;;;;;;;22.50;14.00;;;3.30;35.70;;;;;;5092863;28;20193;-70
2024/02/29 06:24:18;;;;;;;21.97;13.37;;;3.30;15.00;;;;;;5113882;28;20358;-70
2024/02/29 06:26:45;;;;;;;22.57;13.30;;;3.40;6.70;;;;;;5113197;28;20173;-69
2024/02/29 06:29:11;;;;;;;23.40;12.67;;;3.40;1.00;;;;;;5110918;28;20203;-69
2024/02/29 06:31:37;;;;;;;23.70;14.07;;;3.40;1.00;;;;;;5112086;28;20587;-70
2024/02/29 06:34:03;;;;;;;21.10;14.53;;;3.40;1.00;;;;;;5111848;28;20168;-69
2024/02/29 06:36:28;;;;;;;22.83;14.27;;;3.50;1.00;;;;;;5111820;28;20181;-70
2024/02/29 06:38:54;;;;;;;21.80;14.07;;;3.50;1.00;;;;;;5102248;28;20553;-70
2024/02/29 06:41:19;;;;;;;19.80;13.37;;;3.50;1.00;;;;;;5111532;28;20249;-69
2024/02/29 06:43:45;;;;;;;19.67;14.47;;;3.50;1.00;;;;;;5111604;28;20219;-69
2024/02/29 06:46:11;;;;;;;21.33;13.80;;;3.60;1.00;;;;;;5111318;28;20161;-69
2024/02/29 06:48:36;;;;;;;20.97;14.50;;;3.70;1.00;;;;;;5111778;28;20176;-69
2024/02/29 06:51:02;;;;;;;21.63;14.27;;;3.70;1.00;;;;;;5100517;28;20189;-69
2024/02/29 06:53:31;;;;;;;22.97;14.33;;;3.80;1.00;;;;;;5091011;28;20568;-69
2024/02/29 06:55:57;;;;;;;22.50;14.27;;;3.90;1.00;;;;;;5090826;28;20197;-71
2024/02/29 06:58:23;;;;;;;23.00;14.10;;;3.90;1.00;;;;;;5091138;28;20676;-69
2024/02/29 07:00:48;;;;;;;22.43;14.40;;;4.00;1.00;;;;;;5090955;28;20197;-69
2024/02/29 07:03:14;;;;;;;21.77;15.23;;;4.10;1.00;;;;;;5090821;28;20212;-68
2024/02/29 07:05:40;;;;;;;22.27;15.13;;;4.20;1.00;;;;;;5099866;28;20216;-69
2024/02/29 07:08:06;;;;;;;24.37;14.53;;;4.20;1.00;;;;;;5084264;28;20182;-69
2024/02/29 07:10:31;;;;;;;21.83;13.53;;;4.30;1.00;;;;;;5104401;28;20194;-68
2024/02/29 07:12:57;;;;;;;21.27;14.73;;;4.40;1.00;;;;;;5073859;28;20568;-70
2024/02/29 07:15:23;;;;;;;20.90;13.23;;;4.50;1.00;;;;;;5074267;28;20185;-70
2024/02/29 07:17:48;;;;;;;20.30;13.30;;;4.60;1.00;;;;;;5074848;28;20239;-71
2024/02/29 07:20:14;;;;;;;20.37;13.60;;;4.70;1.00;;;;;;5095431;28;20677;-71
2024/02/29 07:22:41;;;;;;;20.97;13.83;;;4.80;1.00;;;;;;5094443;28;20201;-71
2024/02/29 07:25:08;;;;;;;21.37;13.33;;;5.00;1.00;;;;;;5094238;28;20166;-68
2024/02/29 07:27:36;;;;;;;19.30;14.13;;;5.20;1.00;;;;;;5094697;28;20162;-71
2024/02/29 07:30:03;;;;;;;19.43;13.73;;;5.50;1.00;;;;;;5094131;28;20560;-68
2024/02/29 07:32:28;;;;;;;18.70;12.53;;;5.70;1.00;;;;;;5094277;28;20174;-70
2024/02/29 07:34:54;;;;;;;21.20;11.97;;;6.00;1.00;;;;;;5113713;28;20210;-71
2024/02/29 07:37:19;;;;;;;20.43;12.77;;;6.30;1.00;;;;;;5115045;28;20185;-69
2024/02/29 07:39:45;;;;;;;19.97;12.50;;;6.60;1.00;;;;;;5114967;27;20244;-71
2024/02/29 07:42:11;;;;;;;16.80;12.00;;;6.90;1.00;;;;;;5114056;28;20212;-72
2024/02/29 07:44:36;;;;;;;14.50;11.30;;;7.20;1.00;;;;;;5094418;28;20693;-70
2024/02/29 07:47:02;;;;;;;15.87;12.60;;;7.40;1.00;;;;;;5103490;28;20184;-68
2024/02/29 07:49:28;;;;;;;14.67;11.43;;;7.70;1.00;;;;;;5114330;28;20678;-71
2024/02/29 07:51:54;;;;;;;16.33;11.27;;;7.90;1.00;;;;;;5114002;28;20191;-69
2024/02/29 07:54:20;;;;;;;16.03;11.87;;;8.20;1.00;;;;;;5114061;28;20173;-69
2024/02/29 07:56:46;;;;;;;17.60;12.30;;;8.50;1.00;;;;;;5114431;28;20169;-69
2024/02/29 07:59:12;;;;;;;16.30;10.70;;;8.80;1.00;;;;;;5114235;28;20177;-70
2024/02/29 08:01:38;;;;;;;16.63;11.57;;;9.10;1.00;;;;;;5105656;28;20193;-69
2024/02/29 08:04:04;;;;;;;14.70;11.70;;;9.30;1.00;;;;;;5095640;28;20208;-70
2024/02/29 08:06:30;;;;;;;15.70;11.17;;;9.60;1.00;;;;;;5093691;28;20569;-69
2024/02/29 08:08:55;;;;;;;17.13;11.07;;;9.80;1.00;;;;;;5093654;28;20181;-70
2024/02/29 08:11:22;;;;;;;13.97;10.53;;;10.00;1.00;;;;;;5093742;28;20669;-70
2024/02/29 08:13:48;;;;;;;13.90;11.03;;;10.10;1.00;;;;;;5093543;28;20165;-69
2024/02/29 08:16:13;;;;;;;14.50;11.20;;;10.00;1.00;;;;;;5112843;28;20184;-69
2024/02/29 08:18:39;;;;;;;14.67;10.57;;;9.90;1.00;;;;;;5114230;28;20168;-69
2024/02/29 08:21:04;;;;;;;14.83;10.17;;;9.80;1.00;;;;;;5113931;28;20245;-69
2024/02/29 08:23:30;;;;;;;15.67;11.20;;;9.60;1.00;;;;;;5113867;28;20200;-69
2024/02/29 08:25:56;;;;;;;14.13;10.87;;;9.30;99.90;;;;;;5112959;28;20173;-70
2024/02/29 08:28:22;;;;;;;13.77;11.30;;;9.10;99.90;;;;;;5114187;28;20547;-70
2024/02/29 08:30:47;;;;;;;15.27;11.13;;;8.90;99.90;;;;;;5095892;28;20205;-70
2024/02/29 08:33:13;;;;;;;17.93;10.20;;;8.80;1.00;;;;;;5093800;28;20267;-70
2024/02/29 08:35:39;;;;;;;16.87;10.60;;;8.60;1.00;;;;;;5093611;28;20227;-71
2024/02/29 08:38:04;;;;;;;12.63;9.57;;;8.50;99.90;;;;;;5097230;28;20185;-72
2024/02/29 08:40:30;;;;;;;16.53;11.03;;;8.50;1.00;;;;;;5092987;28;20280;-71
2024/02/29 08:42:56;;;;;;;15.43;10.80;;;8.40;1.00;;;;;;5094170;28;20561;-69
2024/02/29 08:45:22;;;;;;;13.50;10.50;;;8.50;1.00;;;;;;5092776;28;20231;-69
2024/02/29 08:47:51;;;;;;;13.40;9.53;;;8.60;1.00;;;;;;5094077;28;20219;-69
2024/02/29 08:50:17;;;;;;;14.33;9.80;;;8.70;1.00;;;;;;5093905;28;20284;-70
2024/02/29 08:52:42;;;;;;;15.43;10.80;;;8.80;1.00;;;;;;5093975;28;20204;-69
2024/02/29 08:55:08;;;;;;;12.63;10.03;;;8.70;1.00;;;;;;5092504;28;20174;-71
2024/02/29 08:57:35;;;;;;;13.10;10.27;;;8.70;1.00;;;;;;5093039;28;20192;-69
2024/02/29 09:00:01;;;;;;;14.40;10.00;;;8.70;1.00;;;;;;5092395;28;20225;-71
2024/02/29 09:02:27;;;;;;;14.30;10.67;;;8.70;1.00;;;;;;5092405;28;20618;-71
2024/02/29 09:04:53;;;;;;;12.30;9.83;;;8.70;1.00;;;;;;5092313;28;20177;-71
2024/02/29 09:07:18;;;;;;;13.63;10.30;;;8.80;1.00;;;;;;5093651;28;20576;-69
2024/02/29 09:09:44;;;;;;;13.57;10.13;;;8.80;1.00;;;;;;5092910;28;20185;-69
2024/02/29 09:12:10;;;;;;;15.57;11.07;;;8.90;1.00;;;;;;5092308;28;20178;-69
2024/02/29 09:14:38;;;;;;;13.97;10.33;;;9.00;1.00;;;;;;5093488;28;20547;-69
2024/02/29 09:17:06;;;;;;;12.13;9.57;;;9.10;1.00;;;;;;5092326;28;20244;-69
2024/02/29 09:19:33;;;;;;;13.43;9.87;;;9.20;1.00;;;;;;5092452;28;20165;-69
2024/02/29 09:21:58;;;;;;;13.13;9.77;;;9.20;1.00;;;;;;5092291;28;20251;-69
2024/02/29 09:24:24;;;;;;;12.50;9.60;;;9.30;1.00;;;;;;5092075;28;20169;-70
2024/02/29 09:26:49;;;;;;;15.90;9.83;;;9.40;1.00;;;;;;5097859;28;20256;-70
2024/02/29 09:29:15;;;;;;;14.13;10.97;;;9.50;1.00;;;;;;5112113;28;20649;-70
2024/02/29 09:31:41;;;;;;;12.27;10.23;;;9.60;1.00;;;;;;5112767;28;20575;-70
2024/02/29 09:34:07;;;;;;;13.30;9.33;;;9.70;1.00;;;;;;5095513;28;20177;-69
2024/02/29 09:36:33;;;;;;;12.47;9.43;;;9.80;1.00;;;;;;5091867;28;20292;-69
2024/02/29 09:38:59;;;;;;;12.40;9.67;;;9.90;1.00;;;;;;5095628;28;20271;-71
2024/02/29 09:41:25;;;;;;;12.70;9.37;;;9.90;1.00;;;;;;5110860;28;20216;-70
2024/02/29 09:43:51;;;;;;;12.03;9.50;;;9.90;1.00;;;;;;5112113;28;20201;-70
2024/02/29 09:46:17;;;;;;;13.33;9.43;;;10.00;1.00;;;;;;5108437;28;20556;-69
2024/02/29 09:48:44;;;;;;;11.97;9.10;;;10.10;1.00;;;;;;5091483;28;20310;-69
2024/02/29 09:51:14;;;;;;;13.20;9.73;;;10.30;1.00;;;;;;5091171;28;20275;-70
2024/02/29 09:53:40;;;;;;;11.80;8.30;;;10.40;1.00;;;;;;5091593;28;20194;-70
2024/02/29 09:56:09;;;;;;;20.57;9.07;;;10.80;1.00;;;;;;5107634;28;20260;-71
2024/02/29 09:58:36;;;;;;;14.97;13.43;;;10.90;99.90;;;;;;5112025;28;20183;-70
2024/02/29 10:01:02;;;;;;;13.20;10.10;;;11.00;99.90;;;;;;5111725;28;20248;-70
2024/02/29 10:03:29;;;;;;;14.77;13.27;;;11.00;99.90;;;;;;5111590;28;20227;-70
2024/02/29 10:05:57;;;;;;;13.07;9.47;;;10.90;99.90;;;;;;5111702;28;20599;-70
2024/02/29 10:08:22;;;;;;;12.33;8.60;;;10.90;99.90;;;;;;5111656;28;20590;-71
2024/02/29 10:10:48;;;;;;;11.30;8.87;;;10.90;99.90;;;;;;5094191;28;20198;-69
2024/02/29 10:13:13;;;;;;;10.17;7.63;;;10.90;99.90;;;;;;5091000;28;20530;-70
2024/02/29 10:15:41;;;;;;;8.57;7.03;;;10.80;99.90;;;;;;5091338;28;20173;-71
2024/02/29 10:18:07;;;;;;;9.90;7.70;;;10.90;99.90;;;;;;5090869;28;20180;-70
2024/02/29 10:20:33;;;;;;;11.97;7.80;;;10.90;99.90;;;;;;5091220;28;20274;-69
2024/02/29 10:22:59;;;;;;;9.17;7.70;;;11.00;99.90;;;;;;5097629;28;20677;-70
2024/02/29 10:25:26;;;;;;;8.80;7.17;;;11.10;99.90;;;;;;5111489;28;20177;-70
2024/02/29 10:28:02;;;;;;;9.97;7.63;;;11.20;99.90;;;;;;5111762;28;20236;-69
2024/02/29 10:30:28;;;;;;;14.47;7.67;;;11.40;99.90;;;;;;5111318;28;20192;-70
2024/02/29 10:32:53;;;;;;;10.23;7.40;;;11.60;99.90;;;;;;5111836;28;20180;-70
2024/02/29 10:35:21;;;;;;;8.93;7.07;;;11.70;99.90;;;;;;5110956;28;20600;-72
2024/02/29 10:37:47;;;;;;;8.97;7.27;;;11.90;99.90;;;;;;5104501;28;20177;-71
2024/02/29 10:40:13;;;;;;;11.90;7.10;;;12.00;99.90;;;;;;5091335;28;20592;-70
2024/02/29 10:42:40;;;;;;;8.77;6.70;;;12.20;99.90;;;;;;5090904;28;20205;-70
2024/02/29 10:45:16;;;;;;;10.00;7.10;;;12.40;99.90;;;;;;5093333;28;20165;-70
2024/02/29 10:48:05;;;;;;;8.73;6.40;;;12.70;99.90;;;;;;5081433;28;20498;-70
2024/02/29 10:50:36;;;;;;;6.17;5.57;;;12.90;99.90;;;;;;5048529;28;20586;-70
2024/02/29 10:53:22;;;;;;;5.57;5.03;;;13.00;99.90;;;;;;5115761;28;20180;-70
2024/02/29 10:55:55;;;;;;;5.97;4.97;;;13.00;99.90;;;;;;5115239;28;20176;-71
2024/02/29 10:58:30;;;;;;;6.03;4.60;;;13.10;99.90;;;;;;5115276;28;20198;-70
2024/02/29 11:00:55;;;;;;;6.30;4.53;;;13.30;99.90;;;;;;5115313;28;20195;-70
2024/02/29 11:03:21;;;;;;;6.07;4.40;;;13.60;99.90;;;;;;5115003;28;20208;-70
2024/02/29 11:05:48;;;;;;;5.33;4.80;;;13.70;98.10;;;;;;5108208;28;20181;-69
2024/02/29 11:08:14;;;;;;;8.20;4.93;;;13.50;98.40;;;;;;5094546;28;20531;-70
2024/02/29 11:10:40;;;;;;;5.50;4.30;;;13.50;98.60;;;;;;5094650;28;20194;-71
2024/02/29 11:13:06;;;;;;;5.30;4.80;;;13.40;98.30;;;;;;5093220;28;20173;-70
2024/02/29 11:15:32;;;;;;;5.13;4.60;;;13.30;98.30;;;;;;5094633;28;20661;-70
2024/02/29 11:17:58;;;;;;;4.57;4.17;;;13.10;99.10;;;;;;5094386;28;20173;-71
2024/02/29 11:20:24;;;;;;;6.10;5.50;;;13.00;99.10;;;;;;5095313;28;20262;-71
2024/02/29 11:23:01;;;;;;;8.83;4.73;;;12.90;98.60;;;;;;5094351;28;20232;-70
2024/02/29 11:25:29;;;;;;;5.13;4.63;;;12.70;99.60;;;;;;5094734;28;20188;-70
2024/02/29 11:27:54;;;;;;;5.23;4.73;;;12.60;99.70;;;;;;5094385;28;20211;-70
2024/02/29 11:30:23;;;;;;;4.90;4.40;;;12.50;99.80;;;;;;5093902;28;20190;-70
2024/02/29 11:32:50;;;;;;;4.90;4.40;;;12.40;99.90;;;;;;5105614;28;20195;-70
2024/02/29 11:35:16;;;;;;;6.03;4.47;;;12.40;99.90;;;;;;5114204;28;20664;-71
2024/02/29 11:37:44;;;;;;;4.50;3.90;;;12.40;99.90;;;;;;5114694;27;20177;-70
2024/02/29 11:40:13;;;;;;;5.17;4.30;;;12.40;99.90;;;;;;5114232;28;20772;-71
2024/02/29 11:42:39;;;;;;;4.60;4.20;;;12.50;99.90;;;;;;5114265;28;20576;-70
2024/02/29 11:45:06;;;;;;;5.07;4.40;;;12.50;99.90;;;;;;5114113;28;20252;-72
2024/02/29 11:47:32;;;;;;;5.17;4.23;;;12.50;99.90;;;;;;5103106;28;20174;-70
2024/02/29 11:49:59;;;;;;;4.43;3.83;;;12.40;99.90;;;;;;5093877;28;20190;-71
2024/02/29 11:52:25;;;;;;;4.63;4.23;;;12.30;99.90;;;;;;5093777;28;20177;-70
2024/02/29 11:54:52;;;;;;;4.33;3.97;;;12.20;99.90;;;;;;5093606;28;20669;-70
2024/02/29 11:57:18;;;;;;;4.50;4.10;;;12.10;99.90;;;;;;5092727;28;20173;-71
2024/02/29 11:59:47;;;;;;;5.23;3.87;;;12.10;99.90;;;;;;5093806;28;20260;-71
2024/02/29 12:02:15;;;;;;;4.43;4.00;;;12.10;99.90;;;;;;5103928;28;20792;-70
2024/02/29 12:04:43;;;;;;;4.10;3.80;;;12.20;99.90;;;;;;5114017;28;20168;-70
2024/02/29 12:07:11;;;;;;;4.73;4.10;;;12.30;99.90;;;;;;5113948;28;20200;-70
2024/02/29 12:09:39;;;;;;;6.30;4.30;;;12.30;99.90;;;;;;5114339;28;20175;-71
2024/02/29 12:12:05;;;;;;;4.87;3.90;;;12.30;99.90;;;;;;5107608;28;20271;-70
2024/02/29 12:14:32;;;;;;;5.90;4.10;;;12.20;99.90;;;;;;5095332;28;20173;-71
2024/02/29 12:16:58;;;;;;;4.67;3.93;;;12.20;99.90;;;;;;5113825;28;20233;-71
2024/02/29 12:19:23;;;;;;;4.83;3.97;;;12.10;99.90;;;;;;5111630;28;20177;-71
2024/02/29 12:21:49;;;;;;;6.40;4.23;;;12.10;99.90;;;;;;5093462;28;20189;-71
2024/02/29 12:24:15;;;;;;;4.33;3.87;;;12.00;99.90;;;;;;5092809;28;20240;-71
2024/02/29 12:26:41;;;;;;;6.97;3.70;;;12.10;99.90;;;;;;5093310;28;20174;-70
2024/02/29 12:29:07;;;;;;;4.50;4.10;;;12.10;99.90;;;;;;5093077;28;20248;-71
2024/02/29 12:31:34;;;;;;;4.60;4.20;;;12.00;99.90;;;;;;5093221;28;20185;-72
2024/02/29 12:34:00;;;;;;;5.20;4.50;;;12.00;99.90;;;;;;5092701;28;20186;-71
2024/02/29 12:36:27;;;;;;;5.23;4.17;;;12.00;99.90;;;;;;5072669;28;20178;-70
2024/02/29 12:38:53;;;;;;;4.37;3.97;;;12.00;99.90;;;;;;5072853;28;20741;-70
2024/02/29 12:41:20;;;;;;;4.47;3.90;;;12.00;99.90;;;;;;5072476;28;20349;-71